sensor_id;sensor_type;location;lat;lon;timestamp;pressure;altitude;pressure_sealevel;temperature;humidity
59531;BME280;45349;48.692;8.186;2023-04-16T00:01:04;98722.78;;;7.87;100.00
59531;BME280;45349;48.692;8.186;2023-04-16T00:03:31;98726.88;;;7.90;100.00
59531;BME280;45349;48.692;8.186;2023-04-16T00:05:59;98729.72;;;7.87;100.00
59531;BME280;45349;48.692;8.186;2023-04-16T00:08:25;98724.53;;;7.87;100.00
59531;BME280;45349;48.692;8.186;2023-04-16T00:10:52;98723.72;;;7.86;100.00
59531;BME280;45349;48.692;8.186;2023-04-16T00:13:19;98722.06;;;7.85;100.00
59531;BME280;45349;48.692;8.186;2023-04-16T00:15:46;98729.88;;;7.85;100.00
59531;BME280;45349;48.692;8.186;2023-04-16T00:18:13;98725.38;;;7.87;100.00
59531;BME280;45349;48.692;8.186;2023-04-16T00:20:40;98727.03;;;7.88;100.00
59531;BME280;45349;48.692;8.186;2023-04-16T00:23:08;98736.31;;;7.91;100.00
59531;BME280;45349;48.692;8.186;2023-04-16T00:25:34;98734.66;;;7.90;100.00
59531;BME280;45349;48.692;8.186;2023-04-16T00:28:01;98734.56;;;7.91;100.00
59531;BME280;45349;48.692;8.186;2023-04-16T00:30:27;98725.66;;;7.94;100.00
59531;BME280;45349;48.692;8.186;2023-04-16T00:32:55;98737.84;;;7.93;100.00
59531;BME280;45349;48.692;8.186;2023-04-16T00:35:22;98731.00;;;7.92;100.00
59531;BME280;45349;48.692;8.186;2023-04-16T00:37:48;98730.31;;;7.90;100.00
59531;BME280;45349;48.692;8.186;2023-04-16T00:40:16;98738.91;;;7.91;100.00
59531;BME280;45349;48.692;8.186;2023-04-16T00:42:44;98739.06;;;7.89;100.00
59531;BME280;45349;48.692;8.186;2023-04-16T00:45:11;98729.63;;;7.88;100.00
59531;BME280;45349;48.692;8.186;2023-04-16T00:47:38;98732.34;;;7.87;100.00
59531;BME280;45349;48.692;8.186;2023-04-16T00:50:05;98731.38;;;7.88;100.00
59531;BME280;45349;48.692;8.186;2023-04-16T00:52:33;98728.41;;;7.92;100.00
59531;BME280;45349;48.692;8.186;2023-04-16T00:55:00;98736.06;;;7.94;100.00
59531;BME280;45349;48.692;8.186;2023-04-16T00:57:29;98730.84;;;7.94;100.00
59531;BME280;45349;48.692;8.186;2023-04-16T00:59:55;98737.97;;;7.92;100.00
59531;BME280;45349;48.692;8.186;2023-04-16T01:02:23;98736.47;;;7.89;100.00
59531;BME280;45349;48.692;8.186;2023-04-16T01:04:50;98737.41;;;7.88;100.00
59531;BME280;45349;48.692;8.186;2023-04-16T01:07:19;98736.56;;;7.88;100.00
59531;BME280;45349;48.692;8.186;2023-04-16T01:09:49;98735.88;;;7.86;100.00
59531;BME280;45349;48.692;8.186;2023-04-16T01:12:24;98740.81;;;7.89;100.00
59531;BME280;45349;48.692;8.186;2023-04-16T01:14:52;98740.81;;;7.89;100.00
59531;BME280;45349;48.692;8.186;2023-04-16T01:17:19;98740.81;;;7.89;100.00
59531;BME280;45349;48.692;8.186;2023-04-16T01:19:45;98740.00;;;7.88;100.00
59531;BME280;45349;48.692;8.186;2023-04-16T01:22:14;98739.44;;;7.85;100.00
59531;BME280;45349;48.692;8.186;2023-04-16T01:24:40;98740.13;;;7.87;100.00
59531;BME280;45349;48.692;8.186;2023-04-16T01:27:09;98748.19;;;7.83;100.00
59531;BME280;45349;48.692;8.186;2023-04-16T01:29:35;98744.09;;;7.81;100.00
59531;BME280;45349;48.692;8.186;2023-04-16T01:32:02;98753.19;;;7.75;100.00
59531;BME280;45349;48.692;8.186;2023-04-16T01:34:32;98752.00;;;7.79;100.00
59531;BME280;45349;48.692;8.186;2023-04-16T01:36:59;98754.22;;;7.84;100.00
59531;BME280;45349;48.692;8.186;2023-04-16T01:39:27;98756.81;;;7.84;100.00
59531;BME280;45349;48.692;8.186;2023-04-16T01:41:55;98755.88;;;7.85;100.00
59531;BME280;45349;48.692;8.186;2023-04-16T01:44:22;98757.63;;;7.85;100.00
59531;BME280;45349;48.692;8.186;2023-04-16T01:46:50;98760.09;;;7.86;100.00
59531;BME280;45349;48.692;8.186;2023-04-16T01:49:16;98752.44;;;7.85;100.00
59531;BME280;45349;48.692;8.186;2023-04-16T01:51:46;98756.69;;;7.86;100.00
59531;BME280;45349;48.692;8.186;2023-04-16T01:54:23;98762.13;;;7.82;100.00
59531;BME280;45349;48.692;8.186;2023-04-16T01:56:55;98752.84;;;7.80;100.00
59531;BME280;45349;48.692;8.186;2023-04-16T01:59:23;98754.41;;;7.71;100.00
59531;BME280;45349;48.692;8.186;2023-04-16T02:01:50;98755.94;;;7.74;100.00
59531;BME280;45349;48.692;8.186;2023-04-16T02:04:16;98764.69;;;7.73;100.00
59531;BME280;45349;48.692;8.186;2023-04-16T02:06:43;98756.91;;;7.73;100.00
59531;BME280;45349;48.692;8.186;2023-04-16T02:09:14;98762.09;;;7.73;100.00
59531;BME280;45349;48.692;8.186;2023-04-16T02:11:41;98759.34;;;7.74;100.00
59531;BME280;45349;48.692;8.186;2023-04-16T02:14:09;98754.84;;;7.76;100.00
59531;BME280;45349;48.692;8.186;2023-04-16T02:16:36;98760.75;;;7.78;100.00
59531;BME280;45349;48.692;8.186;2023-04-16T02:19:10;98759.09;;;7.77;100.00
59531;BME280;45349;48.692;8.186;2023-04-16T02:21:37;98765.50;;;7.73;100.00
59531;BME280;45349;48.692;8.186;2023-04-16T02:24:04;98762.22;;;7.71;100.00
59531;BME280;45349;48.692;8.186;2023-04-16T02:26:31;98764.13;;;7.69;100.00
59531;BME280;45349;48.692;8.186;2023-04-16T02:29:04;98760.44;;;7.72;100.00
59531;BME280;45349;48.692;8.186;2023-04-16T02:31:39;98762.91;;;7.73;100.00
59531;BME280;45349;48.692;8.186;2023-04-16T02:34:07;98763.03;;;7.72;100.00
59531;BME280;45349;48.692;8.186;2023-04-16T02:36:33;98764.81;;;7.71;100.00
59531;BME280;45349;48.692;8.186;2023-04-16T02:39:00;98771.78;;;7.71;100.00
59531;BME280;45349;48.692;8.186;2023-04-16T02:41:27;98776.84;;;7.72;100.00
59531;BME280;45349;48.692;8.186;2023-04-16T02:43:53;98776.03;;;7.72;100.00
59531;BME280;45349;48.692;8.186;2023-04-16T02:46:20;98771.78;;;7.71;100.00
59531;BME280;45349;48.692;8.186;2023-04-16T02:48:50;98772.06;;;7.67;100.00
59531;BME280;45349;48.692;8.186;2023-04-16T02:51:16;98770.41;;;7.66;100.00
59531;BME280;45349;48.692;8.186;2023-04-16T02:53:43;98766.72;;;7.69;100.00
59531;BME280;45349;48.692;8.186;2023-04-16T02:56:11;98762.03;;;7.63;100.00
59531;BME280;45349;48.692;8.186;2023-04-16T02:58:37;98770.41;;;7.66;100.00
59531;BME280;45349;48.692;8.186;2023-04-16T03:01:04;98765.56;;;7.62;100.00
59531;BME280;45349;48.692;8.186;2023-04-16T03:03:31;98767.22;;;7.63;100.00
59531;BME280;45349;48.692;8.186;2023-04-16T03:05:59;98767.38;;;7.61;100.00
59531;BME280;45349;48.692;8.186;2023-04-16T03:08:26;98770.66;;;7.63;100.00
59531;BME280;45349;48.692;8.186;2023-04-16T03:10:52;98764.38;;;7.66;100.00
59531;BME280;45349;48.692;8.186;2023-04-16T03:13:19;98769.81;;;7.63;100.00
59531;BME280;45349;48.692;8.186;2023-04-16T03:15:47;98769.97;;;7.61;100.00
59531;BME280;45349;48.692;8.186;2023-04-16T03:18:14;98768.31;;;7.60;100.00
59531;BME280;45349;48.692;8.186;2023-04-16T03:20:41;98771.72;;;7.61;100.00
59531;BME280;45349;48.692;8.186;2023-04-16T03:23:09;98780.47;;;7.60;100.00
59531;BME280;45349;48.692;8.186;2023-04-16T03:25:35;98775.84;;;7.63;100.00
59531;BME280;45349;48.692;8.186;2023-04-16T03:28:06;98773.38;;;7.62;100.00
59531;BME280;45349;48.692;8.186;2023-04-16T03:33:12;98769.81;;;7.63;100.00
59531;BME280;45349;48.692;8.186;2023-04-16T03:35:39;98773.38;;;7.62;100.00
59531;BME280;45349;48.692;8.186;2023-04-16T03:38:06;98768.16;;;7.62;100.00
59531;BME280;45349;48.692;8.186;2023-04-16T03:40:34;98773.25;;;7.63;100.00
59531;BME280;45349;48.692;8.186;2023-04-16T03:43:01;98775.28;;;7.60;100.00
59531;BME280;45349;48.692;8.186;2023-04-16T03:45:27;98770.34;;;7.57;100.00
59531;BME280;45349;48.692;8.186;2023-04-16T03:47:54;98773.63;;;7.59;100.00
59531;BME280;45349;48.692;8.186;2023-04-16T03:50:24;98772.94;;;7.57;100.00
59531;BME280;45349;48.692;8.186;2023-04-16T03:52:50;98776.47;;;7.56;100.00
59531;BME280;45349;48.692;8.186;2023-04-16T03:55:17;98779.91;;;7.56;100.00
59531;BME280;45349;48.692;8.186;2023-04-16T03:57:45;98778.13;;;7.57;100.00
59531;BME280;45349;48.692;8.186;2023-04-16T04:00:14;98780.72;;;7.57;100.00
59531;BME280;45349;48.692;8.186;2023-04-16T04:02:53;98770.72;;;7.52;100.00
59531;BME280;45349;48.692;8.186;2023-04-16T04:05:20;98777.69;;;7.51;100.00
59531;BME280;45349;48.692;8.186;2023-04-16T04:07:47;98775.22;;;7.50;100.00
59531;BME280;45349;48.692;8.186;2023-04-16T04:10:14;98775.94;;;7.52;100.00
59531;BME280;45349;48.692;8.186;2023-04-16T04:12:41;98774.38;;;7.49;100.00
59531;BME280;45349;48.692;8.186;2023-04-16T04:15:10;98784.66;;;7.51;100.00
59531;BME280;45349;48.692;8.186;2023-04-16T04:17:36;98786.16;;;7.53;100.00
59531;BME280;45349;48.692;8.186;2023-04-16T04:20:04;98783.03;;;7.50;100.00
59531;BME280;45349;48.692;8.186;2023-04-16T04:22:31;98784.53;;;7.52;100.00
59531;BME280;45349;48.692;8.186;2023-04-16T04:24:57;98790.66;;;7.51;100.00
59531;BME280;45349;48.692;8.186;2023-04-16T04:27:26;98800.09;;;7.52;100.00
59531;BME280;45349;48.692;8.186;2023-04-16T04:29:53;98799.41;;;7.50;100.00
59531;BME280;45349;48.692;8.186;2023-04-16T04:32:22;98801.91;;;7.52;100.00
59531;BME280;45349;48.692;8.186;2023-04-16T04:34:48;98804.25;;;7.55;100.00
59531;BME280;45349;48.692;8.186;2023-04-16T04:37:15;98809.56;;;7.53;100.00
59531;BME280;45349;48.692;8.186;2023-04-16T04:39:42;98805.44;;;7.51;100.00
59531;BME280;45349;48.692;8.186;2023-04-16T04:42:12;98810.50;;;7.52;100.00
59531;BME280;45349;48.692;8.186;2023-04-16T04:44:39;98809.44;;;7.55;100.00
59531;BME280;45349;48.692;8.186;2023-04-16T04:47:07;98809.44;;;7.55;100.00
59531;BME280;45349;48.692;8.186;2023-04-16T04:49:35;98814.75;;;7.53;100.00
59531;BME280;45349;48.692;8.186;2023-04-16T04:52:01;98822.53;;;7.53;100.00
59531;BME280;45349;48.692;8.186;2023-04-16T04:54:32;98814.88;;;7.52;100.00
59531;BME280;45349;48.692;8.186;2023-04-16T04:56:59;98818.75;;;7.58;100.00
59531;BME280;45349;48.692;8.186;2023-04-16T04:59:27;98820.63;;;7.56;100.00
59531;BME280;45349;48.692;8.186;2023-04-16T05:01:54;98831.47;;;7.61;100.00
59531;BME280;45349;48.692;8.186;2023-04-16T05:04:20;98826.78;;;7.54;100.00
59531;BME280;45349;48.692;8.186;2023-04-16T05:06:48;98825.13;;;7.53;100.00
59531;BME280;45349;48.692;8.186;2023-04-16T05:09:15;98827.72;;;7.53;100.00
59531;BME280;45349;48.692;8.186;2023-04-16T05:11:41;98836.91;;;7.58;100.00
59531;BME280;45349;48.692;8.186;2023-04-16T05:14:08;98834.31;;;7.58;100.00
59531;BME280;45349;48.692;8.186;2023-04-16T05:16:36;98837.88;;;7.57;100.00
59531;BME280;45349;48.692;8.186;2023-04-16T05:19:03;98837.06;;;7.56;100.00
59531;BME280;45349;48.692;8.186;2023-04-16T05:21:30;98843.91;;;7.57;100.00
59531;BME280;45349;48.692;8.186;2023-04-16T05:23:58;98850.06;;;7.56;100.00
59531;BME280;45349;48.692;8.186;2023-04-16T05:26:24;98845.81;;;7.55;100.00
59531;BME280;45349;48.692;8.186;2023-04-16T05:28:51;98850.84;;;7.57;100.00
59531;BME280;45349;48.692;8.186;2023-04-16T05:31:17;98848.25;;;7.57;100.00
59531;BME280;45349;48.692;8.186;2023-04-16T05:33:44;98848.25;;;7.57;100.00
59531;BME280;45349;48.692;8.186;2023-04-16T05:36:10;98858.78;;;7.55;100.00
59531;BME280;45349;48.692;8.186;2023-04-16T05:38:37;98870.25;;;7.52;100.00
59531;BME280;45349;48.692;8.186;2023-04-16T05:41:05;98867.53;;;7.54;100.00
59531;BME280;45349;48.692;8.186;2023-04-16T05:43:31;98867.28;;;7.57;100.00
59531;BME280;45349;48.692;8.186;2023-04-16T05:45:58;98868.94;;;7.58;100.00
59531;BME280;45349;48.692;8.186;2023-04-16T05:48:25;98865.50;;;7.58;100.00
59531;BME280;45349;48.692;8.186;2023-04-16T05:50:51;98874.00;;;7.60;100.00
59531;BME280;45349;48.692;8.186;2023-04-16T05:53:18;98878.94;;;7.63;100.00
59531;BME280;45349;48.692;8.186;2023-04-16T05:55:44;98881.44;;;7.64;100.00
59531;BME280;45349;48.692;8.186;2023-04-16T05:58:12;98891.22;;;7.61;100.00
59531;BME280;45349;48.692;8.186;2023-04-16T06:00:39;98888.88;;;7.58;100.00
59531;BME280;45349;48.692;8.186;2023-04-16T06:03:06;98884.63;;;7.57;100.00
59531;BME280;45349;48.692;8.186;2023-04-16T06:05:32;98891.63;;;7.56;100.00
59531;BME280;45349;48.692;8.186;2023-04-16T06:07:59;98892.88;;;7.62;100.00
59531;BME280;45349;48.692;8.186;2023-04-16T06:10:25;98893.56;;;7.64;100.00
59531;BME280;45349;48.692;8.186;2023-04-16T06:12:52;98895.22;;;7.65;100.00
59531;BME280;45349;48.692;8.186;2023-04-16T06:15:20;98897.72;;;7.66;100.00
59531;BME280;45349;48.692;8.186;2023-04-16T06:17:48;98899.72;;;7.63;100.00
59531;BME280;45349;48.692;8.186;2023-04-16T06:20:14;98903.03;;;7.65;100.00
59531;BME280;45349;48.692;8.186;2023-04-16T06:22:41;98900.16;;;7.68;100.00
59531;BME280;45349;48.692;8.186;2023-04-16T06:25:08;98896.06;;;7.65;100.00
59531;BME280;45349;48.692;8.186;2023-04-16T06:27:35;98907.41;;;7.64;100.00
59531;BME280;45349;48.692;8.186;2023-04-16T06:30:01;98902.22;;;7.64;100.00
59531;BME280;45349;48.692;8.186;2023-04-16T06:32:29;98908.81;;;7.68;100.00
59531;BME280;45349;48.692;8.186;2023-04-16T06:34:56;98914.81;;;7.69;100.00
59531;BME280;45349;48.692;8.186;2023-04-16T06:37:23;98917.16;;;7.72;100.00
59531;BME280;45349;48.692;8.186;2023-04-16T06:39:50;98920.72;;;7.71;100.00
59531;BME280;45349;48.692;8.186;2023-04-16T06:42:16;98921.09;;;7.66;100.00
59531;BME280;45349;48.692;8.186;2023-04-16T06:44:43;98920.00;;;7.69;100.00
59531;BME280;45349;48.692;8.186;2023-04-16T06:47:09;98927.44;;;7.74;100.00
59531;BME280;45349;48.692;8.186;2023-04-16T06:49:37;98916.66;;;7.78;100.00
59531;BME280;45349;48.692;8.186;2023-04-16T06:52:04;98926.25;;;7.78;100.00
59531;BME280;45349;48.692;8.186;2023-04-16T06:54:31;98922.00;;;7.77;100.00
59531;BME280;45349;48.692;8.186;2023-04-16T06:56:58;98925.41;;;7.77;100.00
59531;BME280;45349;48.692;8.186;2023-04-16T06:59:24;98926.81;;;7.81;100.00
59531;BME280;45349;48.692;8.186;2023-04-16T07:01:51;98923.16;;;7.84;100.00
59531;BME280;45349;48.692;8.186;2023-04-16T07:04:17;98930.00;;;7.85;100.00
59531;BME280;45349;48.692;8.186;2023-04-16T07:06:48;98930.00;;;7.85;100.00
59531;BME280;45349;48.692;8.186;2023-04-16T07:09:15;98932.59;;;7.85;100.00
59531;BME280;45349;48.692;8.186;2023-04-16T07:11:42;98934.69;;;7.91;100.00
59531;BME280;45349;48.692;8.186;2023-04-16T07:14:09;98938.09;;;7.92;100.00
59531;BME280;45349;48.692;8.186;2023-04-16T07:16:38;98935.25;;;7.95;100.00
59531;BME280;45349;48.692;8.186;2023-04-16T07:19:05;98931.00;;;7.94;100.00
59531;BME280;45349;48.692;8.186;2023-04-16T07:21:32;98933.84;;;7.91;100.00
59531;BME280;45349;48.692;8.186;2023-04-16T07:24:00;98933.59;;;7.94;100.00
59531;BME280;45349;48.692;8.186;2023-04-16T07:26:26;98936.69;;;7.88;100.00
59531;BME280;45349;48.692;8.186;2023-04-16T07:28:53;98933.59;;;7.94;100.00
59531;BME280;45349;48.692;8.186;2023-04-16T07:31:19;98937.59;;;7.98;100.00
59531;BME280;45349;48.692;8.186;2023-04-16T07:33:46;98937.44;;;8.00;100.00
59531;BME280;45349;48.692;8.186;2023-04-16T07:36:12;98945.00;;;8.03;100.00
59531;BME280;45349;48.692;8.186;2023-04-16T07:38:39;98941.09;;;8.08;100.00
59531;BME280;45349;48.692;8.186;2023-04-16T07:41:07;98951.50;;;8.08;100.00
59531;BME280;45349;48.692;8.186;2023-04-16T07:43:34;98941.53;;;8.13;100.00
59531;BME280;45349;48.692;8.186;2023-04-16T07:46:00;98948.94;;;8.18;100.00
59531;BME280;45349;48.692;8.186;2023-04-16T07:48:27;98944.69;;;8.17;100.00
59531;BME280;45349;48.692;8.186;2023-04-16T07:50:53;98946.78;;;8.23;100.00
59531;BME280;45349;48.692;8.186;2023-04-16T07:53:20;98957.63;;;8.28;100.00
59531;BME280;45349;48.692;8.186;2023-04-16T07:55:47;98955.91;;;8.39;100.00
59531;BME280;45349;48.692;8.186;2023-04-16T07:58:15;98960.84;;;8.42;100.00
59531;BME280;45349;48.692;8.186;2023-04-16T08:00:42;98959.28;;;8.51;100.00
59531;BME280;45349;48.692;8.186;2023-04-16T08:03:12;98957.00;;;8.57;100.00
59531;BME280;45349;48.692;8.186;2023-04-16T08:05:40;98961.94;;;8.61;100.00
59531;BME280;45349;48.692;8.186;2023-04-16T08:08:06;98967.00;;;8.62;100.00
59531;BME280;45349;48.692;8.186;2023-04-16T08:10:33;98965.53;;;8.69;100.00
59531;BME280;45349;48.692;8.186;2023-04-16T08:13:00;98976.50;;;8.73;100.00
59531;BME280;45349;48.692;8.186;2023-04-16T08:15:28;98982.00;;;8.80;100.00
59531;BME280;45349;48.692;8.186;2023-04-16T08:17:55;98978.88;;;8.86;100.00
59531;BME280;45349;48.692;8.186;2023-04-16T08:20:21;98983.13;;;8.87;100.00
59531;BME280;45349;48.692;8.186;2023-04-16T08:22:48;98982.75;;;8.92;100.00
59531;BME280;45349;48.692;8.186;2023-04-16T08:25:14;98991.81;;;8.97;100.00
59531;BME280;45349;48.692;8.186;2023-04-16T08:27:41;98990.31;;;8.95;100.00
59531;BME280;45349;48.692;8.186;2023-04-16T08:30:08;98996.22;;;8.97;100.00
59531;BME280;45349;48.692;8.186;2023-04-16T08:32:36;99002.56;;;8.83;100.00
59531;BME280;45349;48.692;8.186;2023-04-16T08:35:02;99006.38;;;8.79;100.00
59531;BME280;45349;48.692;8.186;2023-04-16T08:37:29;99004.31;;;8.73;100.00
59531;BME280;45349;48.692;8.186;2023-04-16T08:39:56;99010.09;;;8.76;100.00
59531;BME280;45349;48.692;8.186;2023-04-16T08:42:28;99008.75;;;8.82;100.00
59531;BME280;45349;48.692;8.186;2023-04-16T08:45:03;99009.84;;;8.79;100.00
59531;BME280;45349;48.692;8.186;2023-04-16T08:47:33;99013.00;;;8.83;100.00
59531;BME280;45349;48.692;8.186;2023-04-16T08:50:03;99012.34;;;8.91;100.00
59531;BME280;45349;48.692;8.186;2023-04-16T08:52:30;99020.97;;;8.91;100.00
59531;BME280;45349;48.692;8.186;2023-04-16T08:55:03;99018.94;;;8.95;100.00
59531;BME280;45349;48.692;8.186;2023-04-16T08:57:37;99013.06;;;9.03;100.00
59531;BME280;45349;48.692;8.186;2023-04-16T09:00:06;99018.03;;;9.06;100.00
59531;BME280;45349;48.692;8.186;2023-04-16T09:02:34;99030.94;;;9.17;100.00
59531;BME280;45349;48.692;8.186;2023-04-16T09:05:04;99019.31;;;9.31;100.00
59531;BME280;45349;48.692;8.186;2023-04-16T09:07:33;99024.00;;;9.37;100.00
59531;BME280;45349;48.692;8.186;2023-04-16T09:09:59;99025.28;;;9.43;100.00
59531;BME280;45349;48.692;8.186;2023-04-16T09:12:26;99026.63;;;9.37;100.00
59531;BME280;45349;48.692;8.186;2023-04-16T09:14:54;99028.53;;;9.35;100.00
59531;BME280;45349;48.692;8.186;2023-04-16T09:17:21;99025.53;;;9.40;100.00
59531;BME280;45349;48.692;8.186;2023-04-16T09:19:48;99032.50;;;9.39;100.00
59531;BME280;45349;48.692;8.186;2023-04-16T09:22:16;99029.38;;;9.45;100.00
59531;BME280;45349;48.692;8.186;2023-04-16T09:24:42;99029.66;;;9.42;100.00
59531;BME280;45349;48.692;8.186;2023-04-16T09:27:10;99030.34;;;9.44;100.00
59531;BME280;45349;48.692;8.186;2023-04-16T09:29:38;99031.72;;;9.49;100.00
59531;BME280;45349;48.692;8.186;2023-04-16T09:32:07;99035.97;;;9.50;100.00
59531;BME280;45349;48.692;8.186;2023-04-16T09:34:34;99032.13;;;9.44;100.00
59531;BME280;45349;48.692;8.186;2023-04-16T09:37:19;99037.19;;;9.55;100.00
59531;BME280;45349;48.692;8.186;2023-04-16T09:39:52;99031.88;;;9.67;100.00
59531;BME280;45349;48.692;8.186;2023-04-16T09:42:20;99031.38;;;9.83;100.00
59531;BME280;45349;48.692;8.186;2023-04-16T09:44:48;99042.06;;;9.89;100.00
59531;BME280;45349;48.692;8.186;2023-04-16T09:47:15;99030.41;;;10.03;100.00
59531;BME280;45349;48.692;8.186;2023-04-16T09:49:42;99035.91;;;10.10;100.00
59531;BME280;45349;48.692;8.186;2023-04-16T09:52:12;99030.25;;;10.15;100.00
59531;BME280;45349;48.692;8.186;2023-04-16T09:54:48;99039.88;;;10.14;100.00
59531;BME280;45349;48.692;8.186;2023-04-16T09:57:19;99049.63;;;10.02;97.09
59531;BME280;45349;48.692;8.186;2023-04-16T09:59:51;99049.75;;;10.21;98.49
59531;BME280;45349;48.692;8.186;2023-04-16T10:02:18;99056.06;;;10.18;98.67
59531;BME280;45349;48.692;8.186;2023-04-16T10:04:46;99047.28;;;10.29;100.00
59531;BME280;45349;48.692;8.186;2023-04-16T10:07:13;99048.09;;;10.29;100.00
59531;BME280;45349;48.692;8.186;2023-04-16T10:09:40;99055.41;;;10.26;97.09
59531;BME280;45349;48.692;8.186;2023-04-16T10:12:08;99055.66;;;10.03;93.90
59531;BME280;45349;48.692;8.186;2023-04-16T10:14:35;99052.63;;;9.98;96.30
59531;BME280;45349;48.692;8.186;2023-04-16T10:17:02;99059.91;;;10.04;98.31
59531;BME280;45349;48.692;8.186;2023-04-16T10:19:30;99060.59;;;10.06;97.65
59531;BME280;45349;48.692;8.186;2023-04-16T10:21:57;99058.25;;;10.13;99.38
59531;BME280;45349;48.692;8.186;2023-04-16T10:24:25;99066.38;;;10.19;100.00
59531;BME280;45349;48.692;8.186;2023-04-16T10:26:51;99065.13;;;10.14;100.00
59531;BME280;45349;48.692;8.186;2023-04-16T10:29:20;99068.16;;;10.19;100.00
59531;BME280;45349;48.692;8.186;2023-04-16T10:31:47;99069.53;;;10.13;100.00
59531;BME280;45349;48.692;8.186;2023-04-16T10:34:15;99066.34;;;10.10;100.00
59531;BME280;45349;48.692;8.186;2023-04-16T10:36:42;99068.97;;;10.10;100.00
59531;BME280;45349;48.692;8.186;2023-04-16T10:39:17;99063.06;;;10.08;100.00
59531;BME280;45349;48.692;8.186;2023-04-16T10:41:44;99065.13;;;10.04;100.00
59531;BME280;45349;48.692;8.186;2023-04-16T10:44:10;99069.81;;;10.10;100.00
59531;BME280;45349;48.692;8.186;2023-04-16T10:46:39;99067.72;;;10.14;100.00
59531;BME280;45349;48.692;8.186;2023-04-16T10:49:14;99075.00;;;10.20;100.00
59531;BME280;45349;48.692;8.186;2023-04-16T10:51:51;99069.81;;;10.30;100.00
59531;BME280;45349;48.692;8.186;2023-04-16T10:54:21;99068.00;;;10.30;100.00
59531;BME280;45349;48.692;8.186;2023-04-16T10:56:49;99075.59;;;10.24;98.47
59531;BME280;45349;48.692;8.186;2023-04-16T10:59:17;99067.75;;;10.24;98.95
59531;BME280;45349;48.692;8.186;2023-04-16T11:01:46;99075.56;;;10.14;98.50
59531;BME280;45349;48.692;8.186;2023-04-16T11:04:42;99068.97;;;10.00;96.89
59531;BME280;45349;48.692;8.186;2023-04-16T11:07:17;99063.50;;;10.03;99.11
59531;BME280;45349;48.692;8.186;2023-04-16T11:09:52;99067.22;;;10.00;98.59
59531;BME280;45349;48.692;8.186;2023-04-16T11:12:20;99059.50;;;9.89;98.57
59531;BME280;45349;48.692;8.186;2023-04-16T11:14:48;99063.34;;;9.95;98.62
59531;BME280;45349;48.692;8.186;2023-04-16T11:17:17;99067.69;;;9.65;98.42
59531;BME280;45349;48.692;8.186;2023-04-16T11:19:44;99067.28;;;9.69;99.93
59531;BME280;45349;48.692;8.186;2023-04-16T11:22:15;99070.03;;;9.68;100.00
59531;BME280;45349;48.692;8.186;2023-04-16T11:24:43;99071.94;;;9.66;100.00
59531;BME280;45349;48.692;8.186;2023-04-16T11:27:11;99077.47;;;9.72;100.00
59531;BME280;45349;48.692;8.186;2023-04-16T11:29:38;99073.75;;;9.75;100.00
59531;BME280;45349;48.692;8.186;2023-04-16T11:32:04;99074.59;;;9.75;100.00
59531;BME280;45349;48.692;8.186;2023-04-16T11:34:32;99062.94;;;9.80;100.00
59531;BME280;45349;48.692;8.186;2023-04-16T11:36:59;99072.25;;;9.82;100.00
59531;BME280;45349;48.692;8.186;2023-04-16T11:39:26;99072.25;;;9.82;100.00
59531;BME280;45349;48.692;8.186;2023-04-16T11:41:52;99078.00;;;9.76;100.00
59531;BME280;45349;48.692;8.186;2023-04-16T11:44:21;99071.97;;;9.75;100.00
59531;BME280;45349;48.692;8.186;2023-04-16T11:46:48;99078.16;;;9.74;100.00
59531;BME280;45349;48.692;8.186;2023-04-16T11:49:15;99077.31;;;9.74;100.00
59531;BME280;45349;48.692;8.186;2023-04-16T11:51:45;99069.31;;;9.56;100.00
59531;BME280;45349;48.692;8.186;2023-04-16T11:54:18;99074.53;;;9.56;100.00
59531;BME280;45349;48.692;8.186;2023-04-16T11:56:46;99075.75;;;9.52;100.00
59531;BME280;45349;48.692;8.186;2023-04-16T11:59:16;99071.22;;;9.54;100.00
59531;BME280;45349;48.692;8.186;2023-04-16T12:01:46;99070.00;;;9.58;100.00
59531;BME280;45349;48.692;8.186;2023-04-16T12:04:16;99080.69;;;9.55;100.00
59531;BME280;45349;48.692;8.186;2023-04-16T12:07:07;99085.06;;;9.54;100.00
59531;BME280;45349;48.692;8.186;2023-04-16T12:09:35;99086.34;;;9.60;100.00
59531;BME280;45349;48.692;8.186;2023-04-16T12:12:02;99082.63;;;9.63;100.00
59531;BME280;45349;48.692;8.186;2023-04-16T12:14:29;99077.69;;;9.59;100.00
59531;BME280;45349;48.692;8.186;2023-04-16T12:17:14;99087.56;;;9.56;100.00
59531;BME280;45349;48.692;8.186;2023-04-16T12:19:47;99097.47;;;9.62;100.00
59531;BME280;45349;48.692;8.186;2023-04-16T12:22:15;99090.03;;;9.57;100.00
59531;BME280;45349;48.692;8.186;2023-04-16T12:24:42;99092.22;;;9.52;100.00
59531;BME280;45349;48.692;8.186;2023-04-16T12:27:08;99089.31;;;9.55;100.00
59531;BME280;45349;48.692;8.186;2023-04-16T12:29:35;99093.19;;;9.51;100.00
59531;BME280;45349;48.692;8.186;2023-04-16T12:32:03;99085.38;;;9.51;100.00
59531;BME280;45349;48.692;8.186;2023-04-16T12:34:30;99093.88;;;9.53;100.00
59531;BME280;45349;48.692;8.186;2023-04-16T12:37:05;99094.41;;;9.47;100.00
59531;BME280;45349;48.692;8.186;2023-04-16T12:39:33;99094.63;;;9.34;100.00
59531;BME280;45349;48.692;8.186;2023-04-16T12:42:00;99105.22;;;9.42;100.00
59531;BME280;45349;48.692;8.186;2023-04-16T12:44:28;99093.91;;;9.22;100.00
59531;BME280;45349;48.692;8.186;2023-04-16T12:46:54;99099.81;;;9.24;100.00
59531;BME280;45349;48.692;8.186;2023-04-16T12:49:21;99103.69;;;9.09;100.00
59531;BME280;45349;48.692;8.186;2023-04-16T12:51:48;99106.41;;;9.28;100.00
59531;BME280;45349;48.692;8.186;2023-04-16T12:54:15;99105.72;;;9.26;100.00
59531;BME280;45349;48.692;8.186;2023-04-16T12:56:43;99105.09;;;9.13;100.00
59531;BME280;45349;48.692;8.186;2023-04-16T12:59:09;99100.75;;;9.23;100.00
59531;BME280;45349;48.692;8.186;2023-04-16T13:01:36;99106.06;;;9.22;100.00
59531;BME280;45349;48.692;8.186;2023-04-16T13:04:02;99108.94;;;9.19;100.00
59531;BME280;45349;48.692;8.186;2023-04-16T13:06:30;99106.34;;;9.19;100.00